createdAt,value
2018-05-21T00:01:15.585Z,10.87
2018-05-21T00:03:43.182Z,12.30
2018-05-21T00:06:10.859Z,10.60
2018-05-21T00:08:38.530Z,11.97
2018-05-21T00:11:06.327Z,10.90
2018-05-21T00:13:33.945Z,11.70
2018-05-21T00:16:01.790Z,11.67
2018-05-21T00:18:29.506Z,11.23
2018-05-21T00:20:57.143Z,12.33
2018-05-21T00:23:24.792Z,10.97
2018-05-21T00:25:52.455Z,12.87
2018-05-21T00:28:20.150Z,12.13
2018-05-21T00:30:47.778Z,12.70
2018-05-21T00:33:15.377Z,12.00
2018-05-21T00:35:43.018Z,12.67
2018-05-21T00:38:10.749Z,12.73
2018-05-21T00:40:38.339Z,13.23
2018-05-21T00:43:06.087Z,14.80
2018-05-21T00:45:33.682Z,13.17
2018-05-21T00:48:01.286Z,12.90
2018-05-21T00:50:28.907Z,13.97
2018-05-21T00:52:56.499Z,14.67
2018-05-21T00:55:35.874Z,13.70
2018-05-21T00:58:03.465Z,12.37
2018-05-21T01:00:31.190Z,11.70
2018-05-21T01:02:58.823Z,13.13
2018-05-21T01:05:26.434Z,12.90
2018-05-21T01:07:54.026Z,14.10
2018-05-21T01:10:21.661Z,12.90
2018-05-21T01:12:49.252Z,12.43
2018-05-21T01:15:16.844Z,13.17
2018-05-21T01:17:44.466Z,13.47
2018-05-21T01:20:12.879Z,13.03
2018-05-21T01:22:40.587Z,12.93
2018-05-21T01:25:08.233Z,13.33
2018-05-21T01:27:35.831Z,12.63
2018-05-21T01:30:03.439Z,12.40
2018-05-21T01:32:31.072Z,12.00
2018-05-21T01:34:58.655Z,11.20
2018-05-21T01:37:26.245Z,12.60
2018-05-21T01:39:53.888Z,12.40
2018-05-21T01:42:21.494Z,13.33
2018-05-21T01:44:49.089Z,11.67
2018-05-21T01:47:16.731Z,10.43
2018-05-21T01:49:44.326Z,12.57
2018-05-21T01:52:11.925Z,12.07
2018-05-21T01:54:39.754Z,11.27
2018-05-21T01:57:07.340Z,12.67
2018-05-21T01:59:34.951Z,11.57
2018-05-21T02:02:02.681Z,11.20
2018-05-21T02:04:30.284Z,11.27
2018-05-21T02:06:57.874Z,13.30
2018-05-21T02:09:25.496Z,13.20
2018-05-21T02:11:53.089Z,13.20
2018-05-21T02:14:20.680Z,13.20
2018-05-21T02:16:48.342Z,11.50
2018-05-21T02:19:16.185Z,11.17
2018-05-21T02:21:43.838Z,11.20
2018-05-21T02:24:11.467Z,11.23
2018-05-21T02:26:39.156Z,13.43
2018-05-21T02:29:07.029Z,11.90
2018-05-21T02:31:34.660Z,12.40
2018-05-21T02:34:02.275Z,13.23
2018-05-21T02:36:29.876Z,12.13
2018-05-21T02:38:57.513Z,12.13
2018-05-21T02:41:25.102Z,13.57
2018-05-21T02:43:52.688Z,12.90
2018-05-21T02:46:20.324Z,11.40
2018-05-21T02:48:48.115Z,12.03
2018-05-21T02:51:15.706Z,12.10
2018-05-21T02:53:43.363Z,12.80
2018-05-21T02:56:10.972Z,13.83
2018-05-21T02:58:38.567Z,12.80
2018-05-21T03:01:06.211Z,12.50
2018-05-21T03:03:33.813Z,13.40
2018-05-21T03:06:01.417Z,15.10
2018-05-21T03:08:29.209Z,15.67
2018-05-21T03:10:56.872Z,13.87
2018-05-21T03:13:24.468Z,17.10
2018-05-21T03:15:52.121Z,13.60
2018-05-21T03:18:19.713Z,14.47
2018-05-21T03:20:47.523Z,14.53
2018-05-21T03:23:15.159Z,13.23
2018-05-21T03:25:42.756Z,13.17
2018-05-21T03:28:10.388Z,13.00
2018-05-21T03:30:38.058Z,14.40
2018-05-21T03:33:05.667Z,10.73
2018-05-21T03:35:33.259Z,13.30
2018-05-21T03:38:00.958Z,14.50
2018-05-21T03:40:28.617Z,12.60
2018-05-21T03:42:56.335Z,13.70
2018-05-21T03:45:24.202Z,13.00
2018-05-21T03:47:51.944Z,10.30
2018-05-21T03:50:19.668Z,10.77
2018-05-21T03:52:47.323Z,9.30
2018-05-21T03:55:14.995Z,8.57
2018-05-21T03:57:42.597Z,8.43
2018-05-21T04:00:22.002Z,9.03
2018-05-21T04:03:03.078Z,10.83
2018-05-21T04:05:30.771Z,6.93
2018-05-21T04:07:58.348Z,7.40
2018-05-21T04:10:25.911Z,6.50
2018-05-21T04:12:53.553Z,5.90
2018-05-21T04:15:21.270Z,8.73
2018-05-21T04:17:48.848Z,6.80
2018-05-21T04:20:16.476Z,8.20
2018-05-21T04:22:44.070Z,5.90
2018-05-21T04:25:11.645Z,7.73
2018-05-21T04:27:39.258Z,7.03
2018-05-21T04:30:06.839Z,6.30
2018-05-21T04:32:34.418Z,6.97
2018-05-21T04:35:02.041Z,5.90
2018-05-21T04:37:29.632Z,5.37
2018-05-21T04:39:57.237Z,7.60
2018-05-21T04:42:24.927Z,5.50
2018-05-21T04:44:52.525Z,6.30
2018-05-21T04:47:20.107Z,5.17
2018-05-21T04:49:47.736Z,5.60
2018-05-21T04:52:15.506Z,7.70
2018-05-21T04:54:43.140Z,6.90
2018-05-21T04:57:10.827Z,5.80
2018-05-21T04:59:38.418Z,7.03
2018-05-21T05:02:06.024Z,5.40
2018-05-21T05:04:33.628Z,4.60
2018-05-21T05:07:01.272Z,6.33
2018-05-21T05:09:28.849Z,4.77
2018-05-21T05:11:56.492Z,5.03
2018-05-21T05:14:30.020Z,4.50
2018-05-21T05:16:57.655Z,5.00
2018-05-21T05:19:25.239Z,4.70
2018-05-21T05:21:52.804Z,5.40
2018-05-21T05:24:20.438Z,5.13
2018-05-21T05:26:48.102Z,5.03
2018-05-21T05:29:15.684Z,4.57
2018-05-21T05:31:43.308Z,4.60
2018-05-21T05:34:11.084Z,5.33
2018-05-21T05:36:38.659Z,5.83
2018-05-21T05:39:06.404Z,4.67
2018-05-21T05:41:34.063Z,4.93
2018-05-21T05:44:01.924Z,5.33
2018-05-21T05:46:29.533Z,4.57
2018-05-21T05:48:57.163Z,5.30
2018-05-21T05:51:24.921Z,5.10
2018-05-21T05:53:52.528Z,6.50
2018-05-21T05:56:20.097Z,5.27
2018-05-21T05:58:47.684Z,5.80
2018-05-21T06:01:15.367Z,7.27
2018-05-21T06:03:43.037Z,5.53
2018-05-21T06:06:10.686Z,6.93
2018-05-21T06:08:38.340Z,6.87
2018-05-21T06:11:05.920Z,6.37
2018-05-21T06:13:33.685Z,5.80
2018-05-21T06:16:01.402Z,6.83
2018-05-21T06:18:29.011Z,6.80
2018-05-21T06:20:56.660Z,7.07
2018-05-21T06:23:24.319Z,9.80
2018-05-21T06:25:52.086Z,5.27
2018-05-21T06:28:19.808Z,7.73
2018-05-21T06:30:47.526Z,6.07
2018-05-21T06:33:15.106Z,6.33
2018-05-21T06:35:42.696Z,6.47
2018-05-21T06:38:10.715Z,4.70
2018-05-21T06:40:38.313Z,5.13
2018-05-21T06:43:06.146Z,5.20
2018-05-21T06:45:33.893Z,4.43
2018-05-21T06:48:01.556Z,5.27
2018-05-21T06:50:29.143Z,7.23
2018-05-21T06:52:56.761Z,4.00
2018-05-21T06:55:24.600Z,6.50
2018-05-21T06:57:52.221Z,5.03
2018-05-21T07:00:19.869Z,4.30
2018-05-21T07:02:47.533Z,5.97
2018-05-21T07:05:15.197Z,7.83
2018-05-21T07:07:42.828Z,6.10
2018-05-21T07:10:10.515Z,4.43
2018-05-21T07:12:38.105Z,4.60
2018-05-21T07:15:05.843Z,4.67
2018-05-21T07:17:33.439Z,6.23
2018-05-21T07:20:01.166Z,3.90
2018-05-21T07:22:28.837Z,3.90
2018-05-21T07:24:56.491Z,5.00
2018-05-21T07:27:24.091Z,6.10
2018-05-21T07:29:51.844Z,4.40
2018-05-21T07:32:19.498Z,4.23
2018-05-21T07:34:47.145Z,4.10
2018-05-21T07:37:14.772Z,4.67
2018-05-21T07:39:42.460Z,4.63
2018-05-21T07:42:10.048Z,4.00
2018-05-21T07:44:37.793Z,3.93
2018-05-21T07:47:05.465Z,4.00
2018-05-21T07:49:33.111Z,4.27
2018-05-21T07:52:00.736Z,3.87
2018-05-21T07:54:28.328Z,4.10
2018-05-21T07:56:55.909Z,4.10
2018-05-21T07:59:23.579Z,4.17
2018-05-21T08:01:51.223Z,6.73
2018-05-21T08:04:18.882Z,3.60
2018-05-21T08:06:46.561Z,4.37
2018-05-21T08:09:14.220Z,3.00
2018-05-21T08:11:41.807Z,3.63
2018-05-21T08:14:09.531Z,4.57
2018-05-21T08:16:37.111Z,5.80
2018-05-21T08:19:04.696Z,4.37
2018-05-21T08:21:32.335Z,4.37
2018-05-21T08:23:59.990Z,4.10
2018-05-21T08:26:27.655Z,3.80
2018-05-21T08:28:55.329Z,3.50
2018-05-21T08:31:22.934Z,3.90
2018-05-21T08:33:50.511Z,4.03
2018-05-21T08:36:18.284Z,5.13
2018-05-21T08:38:45.953Z,7.37
2018-05-21T08:41:13.540Z,5.50
2018-05-21T08:43:41.464Z,4.17
2018-05-21T08:46:09.051Z,4.80
2018-05-21T08:48:36.652Z,4.97
2018-05-21T08:51:04.279Z,4.07
2018-05-21T08:53:31.899Z,4.00
2018-05-21T08:55:59.483Z,4.17
2018-05-21T08:58:27.261Z,3.93
2018-05-21T09:00:54.847Z,3.50
2018-05-21T09:03:22.438Z,3.63
2018-05-21T09:05:50.068Z,3.27
2018-05-21T09:08:17.648Z,3.57
2018-05-21T09:10:45.224Z,4.10
2018-05-21T09:13:12.834Z,3.57
2018-05-21T09:15:40.488Z,3.90
2018-05-21T09:18:08.092Z,3.47
2018-05-21T09:20:35.700Z,3.90
2018-05-21T09:23:03.277Z,2.80
2018-05-21T09:25:30.844Z,3.10
2018-05-21T09:27:58.612Z,3.10
2018-05-21T09:30:26.196Z,3.00
2018-05-21T09:32:53.911Z,3.50
2018-05-21T09:35:21.545Z,3.70
2018-05-21T09:37:49.125Z,2.93
2018-05-21T09:40:16.711Z,3.60
2018-05-21T09:42:44.305Z,4.37
2018-05-21T09:45:12.025Z,6.27
2018-05-21T09:47:40.472Z,3.37
2018-05-21T09:50:08.144Z,2.90
2018-05-21T09:52:35.723Z,2.77
2018-05-21T09:55:03.306Z,3.00
2018-05-21T09:57:30.915Z,3.50
2018-05-21T09:59:58.490Z,3.50
2018-05-21T10:02:26.054Z,2.60
2018-05-21T10:04:53.668Z,2.60
2018-05-21T10:07:21.248Z,2.10
2018-05-21T10:09:48.853Z,2.53
2018-05-21T10:12:16.468Z,2.70
2018-05-21T10:14:44.181Z,2.70
2018-05-21T10:17:11.756Z,3.10
2018-05-21T10:19:39.374Z,2.97
2018-05-21T10:22:07.138Z,2.37
2018-05-21T10:24:34.812Z,3.80
2018-05-21T10:27:02.451Z,3.13
2018-05-21T10:29:30.031Z,2.40
2018-05-21T10:31:57.608Z,3.40
2018-05-21T10:34:25.212Z,3.00
2018-05-21T10:36:52.783Z,2.80
2018-05-21T10:39:20.414Z,2.00
2018-05-21T10:41:48.140Z,2.53
2018-05-21T10:44:15.707Z,3.37
2018-05-21T10:46:43.292Z,2.60
2018-05-21T10:49:10.903Z,3.80
2018-05-21T10:51:38.513Z,3.50
2018-05-21T10:54:06.262Z,3.27
2018-05-21T10:56:33.866Z,3.87
2018-05-21T10:59:01.474Z,4.57
2018-05-21T11:01:29.058Z,4.37
2018-05-21T11:03:56.712Z,4.20
2018-05-21T11:06:24.301Z,4.37
2018-05-21T11:08:51.901Z,4.47
2018-05-21T11:11:19.520Z,3.70
2018-05-21T11:13:47.128Z,9.87
2018-05-21T11:16:14.711Z,4.50
2018-05-21T11:18:42.363Z,9.90
2018-05-21T11:21:09.938Z,8.30
2018-05-21T11:23:37.595Z,3.97
2018-05-21T11:26:05.251Z,3.40
2018-05-21T11:28:32.847Z,4.40
2018-05-21T11:31:00.505Z,4.40
2018-05-21T11:33:28.082Z,4.80
2018-05-21T11:35:55.688Z,4.43
2018-05-21T11:38:23.268Z,4.67
2018-05-21T11:40:50.898Z,3.73
2018-05-21T11:43:18.484Z,4.40
2018-05-21T11:45:46.063Z,4.67
2018-05-21T11:48:13.679Z,5.33
2018-05-21T11:50:41.268Z,4.57
2018-05-21T11:53:08.927Z,4.30
2018-05-21T11:55:36.721Z,4.47
2018-05-21T11:58:04.317Z,4.90
2018-05-21T12:00:31.875Z,4.57
2018-05-21T12:02:59.472Z,5.13
2018-05-21T12:05:27.056Z,5.07
2018-05-21T12:07:54.633Z,3.97
2018-05-21T12:10:22.255Z,3.77
2018-05-21T12:12:49.834Z,4.07
2018-05-21T12:15:17.581Z,3.40
2018-05-21T12:17:45.205Z,2.93
2018-05-21T12:20:12.812Z,3.70
2018-05-21T12:22:40.381Z,3.27
2018-05-21T12:25:08.016Z,3.20
2018-05-21T12:27:35.861Z,2.90
2018-05-21T12:30:03.473Z,2.80
2018-05-21T12:32:31.096Z,3.90
2018-05-21T12:34:58.684Z,2.50
2018-05-21T12:37:26.274Z,3.40
2018-05-21T12:39:53.947Z,3.67
2018-05-21T12:42:21.527Z,2.90
2018-05-21T12:44:49.116Z,2.90
2018-05-21T12:47:16.755Z,4.13
2018-05-21T12:49:44.341Z,3.50
2018-05-21T12:52:11.926Z,3.77
2018-05-21T12:54:39.600Z,4.00
2018-05-21T12:57:07.143Z,5.10
2018-05-21T12:59:34.729Z,3.10
2018-05-21T13:02:02.343Z,3.93
2018-05-21T13:04:29.937Z,2.97
2018-05-21T13:06:57.530Z,3.60
2018-05-21T13:09:25.129Z,3.83
2018-05-21T13:11:52.717Z,3.03
2018-05-21T13:14:20.303Z,3.83
2018-05-21T13:16:47.915Z,3.30
2018-05-21T13:19:15.544Z,3.20
2018-05-21T13:21:43.132Z,3.33
2018-05-21T13:24:10.850Z,3.20
2018-05-21T13:26:38.367Z,4.10
2018-05-21T13:29:05.913Z,3.27
2018-05-21T13:31:33.517Z,3.83
2018-05-21T13:34:01.099Z,3.53
2018-05-21T13:36:28.670Z,2.97
2018-05-21T13:38:56.273Z,3.83
2018-05-21T13:41:23.855Z,4.20
2018-05-21T13:43:51.430Z,3.73
2018-05-21T13:46:19.035Z,3.67
2018-05-21T13:48:46.611Z,3.67
2018-05-21T13:51:14.204Z,3.33
2018-05-21T13:53:41.821Z,4.03
2018-05-21T13:56:09.391Z,3.40
2018-05-21T13:58:36.982Z,5.00
2018-05-21T14:01:04.683Z,3.50
2018-05-21T14:03:32.303Z,4.30
2018-05-21T14:05:59.874Z,3.60
2018-05-21T14:08:27.505Z,4.10
2018-05-21T14:10:55.092Z,4.00
2018-05-21T14:13:22.671Z,2.90
2018-05-21T14:15:50.323Z,4.07
2018-05-21T14:18:17.908Z,4.83
2018-05-21T14:20:45.501Z,3.40
2018-05-21T14:23:13.122Z,3.37
2018-05-21T14:25:40.694Z,4.10
2018-05-21T14:28:08.281Z,3.23
2018-05-21T14:30:35.931Z,3.17
2018-05-21T14:33:03.557Z,3.60
2018-05-21T14:35:31.109Z,4.13
2018-05-21T14:37:59.024Z,3.30
2018-05-21T14:40:26.656Z,3.50
2018-05-21T14:42:54.235Z,3.90
2018-05-21T14:45:22.008Z,3.43
2018-05-21T14:47:49.586Z,5.47
2018-05-21T14:50:17.162Z,4.17
2018-05-21T14:52:44.788Z,4.50
2018-05-21T14:55:12.360Z,3.70
2018-05-21T14:57:39.929Z,4.97
2018-05-21T15:00:07.533Z,5.20
2018-05-21T15:02:35.111Z,4.67
2018-05-21T15:05:02.672Z,5.70
2018-05-21T15:07:30.308Z,5.63
2018-05-21T15:09:58.001Z,5.23
2018-05-21T15:12:25.890Z,5.03
2018-05-21T15:14:53.546Z,8.17
2018-05-21T15:17:21.109Z,6.60
2018-05-21T15:19:48.670Z,6.30
2018-05-21T15:22:16.345Z,6.67
2018-05-21T15:24:43.873Z,6.73
2018-05-21T15:27:11.442Z,6.77
2018-05-21T15:29:39.102Z,7.03
2018-05-21T15:32:06.713Z,6.47
2018-05-21T15:34:34.291Z,6.20
2018-05-21T15:37:01.889Z,5.30
2018-05-21T15:39:29.525Z,5.37
2018-05-21T15:41:57.088Z,6.97
2018-05-21T15:44:24.985Z,6.27
2018-05-21T15:46:52.557Z,5.73
2018-05-21T15:49:20.153Z,6.07
2018-05-21T15:51:47.954Z,6.63
2018-05-21T15:54:15.556Z,7.20
2018-05-21T15:56:43.391Z,6.10
2018-05-21T15:59:10.993Z,5.90
2018-05-21T16:01:38.572Z,6.43
2018-05-21T16:04:06.177Z,4.53
2018-05-21T16:06:33.784Z,7.00
2018-05-21T16:09:01.386Z,6.70
2018-05-21T16:11:28.962Z,5.50
2018-05-21T16:13:56.563Z,6.10
2018-05-21T16:16:24.276Z,4.73
2018-05-21T16:18:51.990Z,5.70
2018-05-21T16:21:19.676Z,6.10
2018-05-21T16:23:47.243Z,4.53
2018-05-21T16:26:14.808Z,5.97
2018-05-21T16:28:42.453Z,5.40
2018-05-21T16:31:10.054Z,4.87
2018-05-21T16:33:37.646Z,5.53
2018-05-21T16:36:05.477Z,5.97
2018-05-21T16:38:33.137Z,6.07
2018-05-21T16:41:00.715Z,5.47
2018-05-21T16:43:28.316Z,7.90
2018-05-21T16:45:55.884Z,7.10
2018-05-21T16:48:23.447Z,8.90
2018-05-21T16:50:51.068Z,5.90
2018-05-21T16:53:18.692Z,5.80
2018-05-21T16:55:46.275Z,5.80
2018-05-21T16:58:13.856Z,6.13
2018-05-21T17:00:41.494Z,4.80
2018-05-21T17:03:09.089Z,4.90
2018-05-21T17:05:36.707Z,5.20
2018-05-21T17:08:04.326Z,5.80
2018-05-21T17:10:31.921Z,8.97
2018-05-21T17:12:59.511Z,5.53
2018-05-21T17:15:27.186Z,5.30
2018-05-21T17:17:54.740Z,6.90
2018-05-21T17:20:22.381Z,6.67
2018-05-21T17:22:50.155Z,7.43
2018-05-21T17:25:17.729Z,5.87
2018-05-21T17:27:45.293Z,6.73
2018-05-21T17:30:12.910Z,5.50
2018-05-21T17:32:40.490Z,8.37
2018-05-21T17:35:08.052Z,5.30
2018-05-21T17:37:35.648Z,6.60
2018-05-21T17:40:03.212Z,9.43
2018-05-21T17:42:30.818Z,7.33
2018-05-21T17:44:58.416Z,7.33
2018-05-21T17:47:25.988Z,6.17
2018-05-21T17:49:53.600Z,6.27
2018-05-21T17:52:21.215Z,7.30
2018-05-21T17:54:48.814Z,7.10
2018-05-21T17:57:16.465Z,5.77
2018-05-21T17:59:44.025Z,6.70
2018-05-21T18:02:11.582Z,7.50
2018-05-21T18:04:39.172Z,6.63
2018-05-21T18:07:06.782Z,6.27
2018-05-21T18:09:34.391Z,7.47
2018-05-21T18:12:01.988Z,6.23
2018-05-21T18:14:29.622Z,6.50
2018-05-21T18:16:57.210Z,6.97
2018-05-21T18:19:24.810Z,6.43
2018-05-21T18:21:52.431Z,6.10
2018-05-21T18:24:20.008Z,6.67
2018-05-21T18:26:47.626Z,6.30
2018-05-21T18:29:15.250Z,7.37
2018-05-21T18:31:42.874Z,5.57
2018-05-21T18:34:10.599Z,5.70
2018-05-21T18:36:38.215Z,4.90
2018-05-21T18:39:06.925Z,7.40
2018-05-21T18:41:34.485Z,17.90
2018-05-21T18:44:02.124Z,13.90
2018-05-21T18:46:29.733Z,15.87
2018-05-21T18:48:57.390Z,11.50
2018-05-21T18:51:25.030Z,14.00
2018-05-21T18:53:52.742Z,6.07
2018-05-21T18:56:20.332Z,9.10
2018-05-21T18:58:47.951Z,5.90
2018-05-21T19:01:15.540Z,4.30
2018-05-21T19:03:43.127Z,5.30
2018-05-21T19:06:10.857Z,4.80
2018-05-21T19:08:38.404Z,5.70
2018-05-21T19:11:05.987Z,5.00
2018-05-21T19:13:33.608Z,4.90
2018-05-21T19:16:01.183Z,6.20
2018-05-21T19:18:28.773Z,5.20
2018-05-21T19:20:56.385Z,4.40
2018-05-21T19:23:23.964Z,5.17
2018-05-21T19:25:51.547Z,4.70
2018-05-21T19:28:19.347Z,4.83
2018-05-21T19:30:46.933Z,4.80
2018-05-21T19:33:14.672Z,5.30
2018-05-21T19:35:42.266Z,4.70
2018-05-21T19:38:09.843Z,5.20
2018-05-21T19:40:37.577Z,4.93
2018-05-21T19:43:05.316Z,5.43
2018-05-21T19:45:33.170Z,4.13
2018-05-21T19:48:01.569Z,4.73
2018-05-21T19:50:29.188Z,5.13
2018-05-21T19:52:56.757Z,5.30
2018-05-21T19:55:24.342Z,5.40
2018-05-21T19:57:52.019Z,5.07
2018-05-21T20:00:19.613Z,5.07
2018-05-21T20:02:47.361Z,6.13
2018-05-21T20:05:15.209Z,6.30
2018-05-21T20:07:42.794Z,6.93
2018-05-21T20:10:10.549Z,6.47
2018-05-21T20:12:38.416Z,6.30
2018-05-21T20:15:05.987Z,6.50
2018-05-21T20:17:33.608Z,8.30
2018-05-21T20:20:01.213Z,6.53
2018-05-21T20:22:28.946Z,7.80
2018-05-21T20:24:56.622Z,4.87
2018-05-21T20:27:24.289Z,5.93
2018-05-21T20:29:52.027Z,5.73
2018-05-21T20:32:19.691Z,6.03
2018-05-21T20:34:47.357Z,5.83
2018-05-21T20:37:15.026Z,5.73
2018-05-21T20:39:42.649Z,5.80
2018-05-21T20:42:10.230Z,7.97
2018-05-21T20:44:37.784Z,6.70
2018-05-21T20:47:05.397Z,5.70
2018-05-21T20:49:32.949Z,6.27
2018-05-21T20:52:00.524Z,7.83
2018-05-21T20:54:28.239Z,6.70
2018-05-21T20:56:55.810Z,6.60
2018-05-21T20:59:23.558Z,6.77
2018-05-21T21:01:51.148Z,6.17
2018-05-21T21:04:18.881Z,6.60
2018-05-21T21:06:46.453Z,6.73
2018-05-21T21:09:14.076Z,6.90
2018-05-21T21:11:41.643Z,6.97
2018-05-21T21:14:09.212Z,6.53
2018-05-21T21:16:37.013Z,5.80
2018-05-21T21:19:04.878Z,8.37
2018-05-21T21:21:32.468Z,6.60
2018-05-21T21:24:00.125Z,7.23
2018-05-21T21:26:27.852Z,8.27
2018-05-21T21:28:55.737Z,7.03
2018-05-21T21:31:23.424Z,6.67
2018-05-21T21:33:51.262Z,7.77
2018-05-21T21:36:18.871Z,7.40
2018-05-21T21:38:46.447Z,6.90
2018-05-21T21:41:14.064Z,8.87
2018-05-21T21:43:41.904Z,8.73
2018-05-21T21:46:09.547Z,7.90
2018-05-21T21:48:37.240Z,7.90
2018-05-21T21:51:04.850Z,9.40
2018-05-21T21:53:32.564Z,7.83
2018-05-21T21:56:00.264Z,8.20
2018-05-21T21:58:28.035Z,7.40
2018-05-21T22:00:55.892Z,7.77
2018-05-21T22:03:23.471Z,8.57
2018-05-21T22:05:51.283Z,9.03
2018-05-21T22:08:18.946Z,10.10
2018-05-21T22:10:46.530Z,8.70
2018-05-21T22:13:14.252Z,8.23
2018-05-21T22:15:41.836Z,7.20
2018-05-21T22:18:09.578Z,8.07
2018-05-21T22:20:37.194Z,8.43
2018-05-21T22:23:04.901Z,8.23
2018-05-21T22:25:32.475Z,8.53
2018-05-21T22:28:00.096Z,7.90
2018-05-21T22:30:27.681Z,7.10
2018-05-21T22:32:55.256Z,8.57
2018-05-21T22:35:23.020Z,7.87
2018-05-21T22:37:50.676Z,9.53
2018-05-21T22:40:18.270Z,8.20
2018-05-21T22:42:47.086Z,9.40
2018-05-21T22:45:14.675Z,8.97
2018-05-21T22:47:42.262Z,10.30
2018-05-21T22:50:09.891Z,9.83
2018-05-21T22:52:37.679Z,10.23
2018-05-21T22:55:05.271Z,10.13
2018-05-21T22:57:32.999Z,9.77
2018-05-21T23:00:00.584Z,11.87
2018-05-21T23:02:28.154Z,17.60
2018-05-21T23:04:55.981Z,10.50
2018-05-21T23:07:23.564Z,12.00
2018-05-21T23:09:51.140Z,9.90
2018-05-21T23:12:18.757Z,8.80
2018-05-21T23:14:46.408Z,9.73
2018-05-21T23:17:14.074Z,8.37
2018-05-21T23:19:41.757Z,8.60
2018-05-21T23:22:12.500Z,8.17
2018-05-21T23:24:40.141Z,8.27
2018-05-21T23:27:07.757Z,9.80
2018-05-21T23:29:35.347Z,8.20
2018-05-21T23:32:02.932Z,9.90
2018-05-21T23:34:30.553Z,9.40
2018-05-21T23:36:58.142Z,9.00
2018-05-21T23:39:25.975Z,10.23
2018-05-21T23:41:53.591Z,9.20
2018-05-21T23:44:21.285Z,8.87
2018-05-21T23:46:48.917Z,9.77
2018-05-21T23:49:16.783Z,8.97
2018-05-21T23:51:44.359Z,9.63
2018-05-21T23:54:12.254Z,10.10
2018-05-21T23:56:40.094Z,11.10
2018-05-21T23:59:07.825Z,10.30
